EGAE

City of Derry Airport

Derry, United Kingdom
METAR EGAE 232020Z 20012KT 9999 FEW024 08/05 Q0998
Observed Flight Rules
Jan-23 @ 20:20 UTC (3 hours ago) Visual Flight Rules
Wind Visibility Clouds
200° at 12 knots 10,000+ meters
  • Few at 2,400' AGL
Temperatures Readings
Current 8°C / 46°F
Dewpoint 5°C / 41°F
Humidity 82%
Altimeter 29.47" Hg
Pressure 998 hPa
Elevation 9
METAR EGAE 232020Z 20012KT 9999 FEW024 08/05 Q0998
Observed Flight Rules
Jan-23 @ 20:20 UTC
(3 hours ago)
VFR
Wind Visibility
200° at 12 knots 10,000+ meters
Clouds
  • Few at 2,400' AGL
Temperature Dewpoint
8°C / 46°F 5°C / 41°F
Humidity Altimeter Pressure
82% 29.47" Hg 998 hPa